MET8601 - McGuire AFB to Boston

Boeing 757-200W
773MU - Charter
0 hrs 55 mins
215 nm
Ferry - Daily

Departure

Departing from
McGuire AFB (WRI)
Departure gate
Ramp
Scheduled Departure
GMT 2155
Local 1755
METAR KWRI 270658Z AUTO 29006KT 10SM CLR 15/13 A2982 RMK AO2 SLP097 T01530127
TAF TAF KWRI 270200Z 2702/2808 29009KT 9999 SCT150 BKN250 QNH2978INS BECMG 2711/2712 VRB06KT 9999 BKN030 QNH2988INS BECMG 2723/2724 VRB06KT 9999 OVC020 QNH2994INS TEMPO 2804/2808 OVC010 TX19/2702Z TN14/2710Z

Route Map

Planning Resources

PTPL5 SHLEP HTO ORW7
RBV HFD PUT KBOS
Route:
OFP Layout:
Units:
Detailed Navlog:
ETOPS Planning:
Plan Stepclimbs:
Runway Analysis:
Include NOTAMS:
FIR NOTAMS:
Flight Maps:

Return Flights

MET8600
Boeing 757-200W
1500 GMT

Popularity

Hub Current Bids PiReps this month Total PiReps
KMCI 0 0 1
KLAX 0 0 1
KBOS 0 0 1